createdAt,value
2016-06-16T00:00:56.135Z,13.8
2016-06-16T00:01:56.310Z,13.82
2016-06-16T00:02:56.297Z,13.79
2016-06-16T00:03:56.299Z,13.76
2016-06-16T00:04:56.318Z,13.65
2016-06-16T00:05:56.130Z,13.73
2016-06-16T00:06:56.290Z,13.75
2016-06-16T00:07:56.293Z,13.62
2016-06-16T00:08:56.296Z,13.61
2016-06-16T00:09:56.299Z,13.64
2016-06-16T00:10:56.712Z,13.6
2016-06-16T00:11:56.305Z,13.57
2016-06-16T00:12:56.293Z,13.5
2016-06-16T00:13:56.297Z,13.57
2016-06-16T00:14:56.299Z,13.46
2016-06-16T00:15:56.396Z,13.43
2016-06-16T00:16:56.306Z,13.46
2016-06-16T00:17:56.309Z,13.5
2016-06-16T00:18:56.311Z,13.39
2016-06-16T00:19:56.299Z,13.39
2016-06-16T00:20:56.302Z,13.33
2016-06-16T00:21:56.321Z,13.39
2016-06-16T00:22:56.308Z,13.31
2016-06-16T00:23:56.311Z,13.31
2016-06-16T00:24:56.314Z,13.27
2016-06-16T00:25:56.677Z,13.26
2016-06-16T00:26:56.305Z,13.31
2016-06-16T00:27:56.308Z,13.39
2016-06-16T00:28:56.311Z,13.36
2016-06-16T00:29:56.298Z,13.36
2016-06-16T00:30:56.318Z,13.37
2016-06-16T00:31:56.305Z,13.4
2016-06-16T00:32:56.324Z,13.46
2016-06-16T00:33:56.310Z,13.43
2016-06-16T00:34:56.314Z,13.46
2016-06-16T00:35:56.317Z,13.54
2016-06-16T00:36:56.320Z,13.49
2016-06-16T00:37:56.323Z,13.54
2016-06-16T00:38:56.310Z,13.57
2016-06-16T00:39:56.313Z,13.49
2016-06-16T00:40:56.738Z,13.55
2016-06-16T00:41:56.320Z,13.54
2016-06-16T00:42:56.322Z,13.55
2016-06-16T00:43:56.325Z,13.52
2016-06-16T00:44:56.314Z,13.52
2016-06-16T00:45:56.317Z,13.55
2016-06-16T00:46:56.319Z,13.52
2016-06-16T00:47:56.323Z,13.55
2016-06-16T00:48:56.310Z,13.57
2016-06-16T00:49:56.329Z,13.54
2016-06-16T00:50:56.316Z,13.54
2016-06-16T00:51:56.163Z,13.47
2016-06-16T00:52:56.322Z,13.45
2016-06-16T00:53:56.341Z,13.47
2016-06-16T00:54:56.328Z,13.47
2016-06-16T00:55:56.645Z,13.47
2016-06-16T00:56:56.318Z,13.52
2016-06-16T00:57:56.322Z,13.46
2016-06-16T00:58:56.325Z,13.45
2016-06-16T00:59:56.328Z,13.47
2016-06-16T01:00:56.330Z,13.45
2016-06-16T01:01:56.334Z,13.5
2016-06-16T01:02:56.337Z,13.47
2016-06-16T01:03:56.325Z,13.49
2016-06-16T01:04:56.328Z,13.37
2016-06-16T01:05:56.331Z,13.37
2016-06-16T01:06:56.334Z,13.4
2016-06-16T01:07:56.337Z,13.33
2016-06-16T01:08:56.169Z,13.37
2016-06-16T01:09:56.233Z,13.31
2016-06-16T01:10:56.706Z,13.36
2016-06-16T01:11:56.334Z,13.4
2016-06-16T01:12:56.228Z,13.37
2016-06-16T01:13:56.308Z,13.33
2016-06-16T01:14:56.328Z,13.37
2016-06-16T01:15:56.331Z,13.33
2016-06-16T01:16:56.334Z,13.36
2016-06-16T01:17:56.337Z,13.31
2016-06-16T01:18:56.340Z,13.33
2016-06-16T01:19:56.327Z,13.3
2016-06-16T01:20:56.331Z,13.31
2016-06-16T01:21:56.333Z,13.24
2016-06-16T01:22:56.336Z,13.27
2016-06-16T01:23:56.355Z,13.36
2016-06-16T01:24:56.342Z,13.24
2016-06-16T01:25:56.346Z,13.31
2016-06-16T01:26:56.349Z,13.26
2016-06-16T01:27:56.368Z,13.31
2016-06-16T01:28:56.338Z,13.33
2016-06-16T01:29:56.358Z,13.23
2016-06-16T01:30:56.345Z,13.28
2016-06-16T01:31:56.333Z,13.33
2016-06-16T01:32:56.351Z,13.31
2016-06-16T01:33:56.339Z,13.33
2016-06-16T01:34:56.342Z,13.33
2016-06-16T01:35:56.345Z,13.36
2016-06-16T01:36:56.348Z,13.37
2016-06-16T01:37:56.351Z,13.45
2016-06-16T01:38:56.355Z,13.45
2016-06-16T01:39:56.357Z,13.54
2016-06-16T01:40:56.594Z,13.5
2016-06-16T01:41:56.364Z,13.5
2016-06-16T01:42:56.382Z,13.46
2016-06-16T01:43:56.354Z,13.52
2016-06-16T01:44:56.341Z,13.46
2016-06-16T01:45:56.344Z,13.52
2016-06-16T01:46:56.347Z,13.5
2016-06-16T01:47:56.350Z,13.49
2016-06-16T01:48:56.353Z,13.57
2016-06-16T01:49:56.342Z,13.64
2016-06-16T01:50:56.344Z,13.65
2016-06-16T01:51:56.347Z,13.7
2016-06-16T01:52:56.351Z,13.85
2016-06-16T01:53:56.354Z,13.79
2016-06-16T01:54:56.371Z,13.78
2016-06-16T01:55:56.703Z,13.76
2016-06-16T01:56:56.363Z,13.82
2016-06-16T01:57:56.350Z,13.79
2016-06-16T01:58:56.353Z,13.75
2016-06-16T01:59:56.356Z,13.76
2016-06-16T02:00:56.359Z,13.94
2016-06-16T02:01:56.362Z,13.94
2016-06-16T02:02:56.366Z,13.82
2016-06-16T02:03:56.368Z,13.8
2016-06-16T02:04:56.357Z,13.93
2016-06-16T02:05:56.359Z,13.89
2016-06-16T02:06:56.363Z,13.93
2016-06-16T02:07:56.380Z,13.86
2016-06-16T02:08:56.353Z,13.89
2016-06-16T02:09:56.215Z,13.87
2016-06-16T02:10:56.500Z,13.82
2016-06-16T02:11:56.362Z,13.79
2016-06-16T02:12:56.365Z,13.75
2016-06-16T02:13:56.368Z,13.7
2016-06-16T02:14:56.371Z,13.7
2016-06-16T02:15:56.405Z,13.67
2016-06-16T02:16:56.362Z,13.67
2016-06-16T02:17:56.364Z,13.6
2016-06-16T02:18:56.367Z,13.52
2016-06-16T02:19:56.371Z,13.46
2016-06-16T02:20:56.374Z,13.45
2016-06-16T02:21:56.376Z,13.37
2016-06-16T02:22:56.365Z,13.36
2016-06-16T02:23:56.352Z,13.39
2016-06-16T02:24:56.371Z,13.23
2016-06-16T02:25:56.577Z,13.26
2016-06-16T02:26:56.377Z,13.17
2016-06-16T02:27:56.380Z,13.16
2016-06-16T02:28:56.368Z,13.21
2016-06-16T02:29:56.433Z,12.99
2016-06-16T02:30:56.373Z,13.06
2016-06-16T02:31:56.376Z,13.06
2016-06-16T02:32:56.224Z,13.05
2016-06-16T02:33:56.366Z,13.05
2016-06-16T02:34:56.370Z,13.02
2016-06-16T02:35:56.373Z,12.9
2016-06-16T02:36:56.376Z,12.88
2016-06-16T02:37:56.379Z,12.9
2016-06-16T02:38:56.367Z,12.86
2016-06-16T02:39:56.370Z,12.87
2016-06-16T02:40:56.373Z,12.93
2016-06-16T02:41:56.376Z,12.83
2016-06-16T02:42:56.379Z,12.81
2016-06-16T02:43:56.397Z,12.81
2016-06-16T02:44:56.386Z,12.78
2016-06-16T02:45:56.389Z,12.72
2016-06-16T02:46:56.391Z,12.75
2016-06-16T02:47:56.394Z,12.7
2016-06-16T02:48:56.382Z,12.73
2016-06-16T02:49:56.370Z,12.72
2016-06-16T02:50:56.387Z,12.8
2016-06-16T02:51:56.391Z,12.72
2016-06-16T02:52:56.394Z,12.72
2016-06-16T02:53:56.382Z,12.72
2016-06-16T02:54:56.244Z,12.7
2016-06-16T02:55:56.389Z,12.76
2016-06-16T02:56:56.297Z,12.68
2016-06-16T02:57:56.394Z,12.73
2016-06-16T02:58:56.382Z,12.8
2016-06-16T02:59:56.385Z,12.68
2016-06-16T03:00:56.388Z,12.68
2016-06-16T03:01:56.391Z,12.73
2016-06-16T03:02:56.378Z,12.62
2016-06-16T03:03:56.381Z,12.73
2016-06-16T03:04:56.228Z,12.7
2016-06-16T03:05:56.387Z,12.72
2016-06-16T03:06:56.390Z,12.69
2016-06-16T03:07:56.394Z,12.63
2016-06-16T03:08:56.224Z,12.72
2016-06-16T03:09:56.399Z,12.72
2016-06-16T03:10:56.402Z,12.73
2016-06-16T03:11:56.469Z,12.7
2016-06-16T03:12:56.394Z,12.78
2016-06-16T03:13:56.411Z,12.75
2016-06-16T03:14:56.383Z,12.75
2016-06-16T03:15:56.387Z,12.78
2016-06-16T03:16:56.390Z,12.73
2016-06-16T03:17:56.393Z,12.69
2016-06-16T03:18:56.255Z,12.81
2016-06-16T03:19:56.399Z,12.81
2016-06-16T03:20:56.386Z,12.73
2016-06-16T03:21:56.405Z,12.68
2016-06-16T03:22:56.408Z,12.83
2016-06-16T03:23:56.395Z,12.72
2016-06-16T03:24:56.399Z,12.72
2016-06-16T03:25:56.401Z,12.84
2016-06-16T03:26:56.404Z,12.7
2016-06-16T03:27:56.393Z,12.73
2016-06-16T03:28:56.411Z,12.73
2016-06-16T03:29:56.398Z,12.78
2016-06-16T03:30:56.402Z,12.78
2016-06-16T03:31:56.405Z,12.83
2016-06-16T03:32:56.408Z,12.75
2016-06-16T03:33:56.426Z,12.72
2016-06-16T03:34:56.398Z,12.84
2016-06-16T03:35:56.401Z,12.73
2016-06-16T03:36:56.421Z,12.7
2016-06-16T03:37:56.407Z,12.8
2016-06-16T03:38:56.395Z,12.7
2016-06-16T03:39:56.398Z,12.78
2016-06-16T03:40:56.401Z,12.83
2016-06-16T03:41:56.420Z,12.83
2016-06-16T03:42:56.407Z,12.81
2016-06-16T03:43:56.410Z,12.86
2016-06-16T03:44:56.414Z,12.83
2016-06-16T03:45:56.400Z,12.81
2016-06-16T03:46:56.404Z,12.84
2016-06-16T03:47:56.407Z,12.78
2016-06-16T03:48:56.410Z,12.76
2016-06-16T03:49:56.397Z,12.83
2016-06-16T03:50:56.401Z,12.81
2016-06-16T03:51:56.403Z,12.73
2016-06-16T03:52:56.406Z,12.81
2016-06-16T03:53:56.409Z,12.86
2016-06-16T03:54:56.413Z,12.8
2016-06-16T03:55:56.415Z,12.9
2016-06-16T03:56:56.404Z,12.87
2016-06-16T03:57:56.407Z,12.87
2016-06-16T03:58:56.425Z,12.93
2016-06-16T03:59:56.413Z,12.98
2016-06-16T04:00:56.416Z,12.91
2016-06-16T04:01:56.403Z,12.93
2016-06-16T04:02:56.406Z,12.95
2016-06-16T04:03:56.410Z,12.98
2016-06-16T04:04:56.412Z,12.99
2016-06-16T04:05:56.415Z,12.99
2016-06-16T04:06:56.418Z,13.03
2016-06-16T04:07:56.422Z,13.02
2016-06-16T04:08:56.408Z,13.05
2016-06-16T04:09:56.427Z,13.08
2016-06-16T04:10:56.431Z,13.09
2016-06-16T04:11:56.543Z,13.03
2016-06-16T04:12:56.421Z,13.12
2016-06-16T04:13:56.423Z,13.16
2016-06-16T04:14:56.412Z,13.2
2016-06-16T04:15:56.462Z,13.2
2016-06-16T04:16:56.437Z,13.24
2016-06-16T04:17:56.480Z,13.2
2016-06-16T04:18:56.522Z,13.12
2016-06-16T04:19:56.565Z,13.31
2016-06-16T04:20:56.592Z,13.27
2016-06-16T04:21:56.624Z,13.39
2016-06-16T04:22:56.485Z,13.37
2016-06-16T04:23:56.658Z,13.47
2016-06-16T04:24:56.676Z,13.49
2016-06-16T04:25:56.693Z,13.54
2016-06-16T04:26:56.769Z,13.55
2016-06-16T04:27:56.699Z,13.61
2016-06-16T04:28:56.707Z,13.62
2016-06-16T04:29:56.715Z,13.7
2016-06-16T04:30:56.707Z,13.68
2016-06-16T04:31:56.745Z,13.7
2016-06-16T04:32:56.563Z,13.73
2016-06-16T04:33:56.724Z,13.82
2016-06-16T04:34:56.729Z,13.8
2016-06-16T04:35:56.733Z,13.83
2016-06-16T04:36:56.738Z,13.79
2016-06-16T04:37:56.742Z,13.8
2016-06-16T04:38:56.730Z,13.78
2016-06-16T04:39:56.750Z,13.86
2016-06-16T04:40:56.738Z,13.89
2016-06-16T04:41:56.585Z,13.83
2016-06-16T04:42:56.745Z,14
2016-06-16T04:43:56.748Z,13.98
2016-06-16T04:44:56.737Z,13.97
2016-06-16T04:45:56.740Z,14.01
2016-06-16T04:46:56.743Z,14.03
2016-06-16T04:47:56.746Z,14
2016-06-16T04:48:56.750Z,14.03
2016-06-16T04:49:56.752Z,14.03
2016-06-16T04:50:56.740Z,13.94
2016-06-16T04:51:56.759Z,13.98
2016-06-16T04:52:56.590Z,13.95
2016-06-16T04:53:56.733Z,13.93
2016-06-16T04:54:56.752Z,14.03
2016-06-16T04:55:56.739Z,13.94
2016-06-16T04:56:56.758Z,14.01
2016-06-16T04:57:56.746Z,14.11
2016-06-16T04:58:56.748Z,14
2016-06-16T04:59:56.751Z,14.11
2016-06-16T05:00:56.754Z,14.12
2016-06-16T05:01:56.757Z,14.13
2016-06-16T05:02:56.589Z,14.15
2016-06-16T05:03:56.749Z,14.15
2016-06-16T05:04:56.752Z,14.15
2016-06-16T05:05:56.754Z,14.2
2016-06-16T05:06:56.758Z,14.25
2016-06-16T05:07:56.761Z,14.19
2016-06-16T05:08:56.764Z,14.23
2016-06-16T05:09:56.751Z,14.26
2016-06-16T05:10:56.739Z,14.28
2016-06-16T05:11:56.601Z,14.3
2016-06-16T05:12:56.761Z,14.25
2016-06-16T05:13:56.764Z,14.33
2016-06-16T05:14:56.752Z,14.3
2016-06-16T05:15:56.770Z,14.33
2016-06-16T05:16:56.757Z,14.36
2016-06-16T05:17:56.761Z,14.28
2016-06-16T05:18:56.764Z,14.37
2016-06-16T05:19:56.767Z,14.41
2016-06-16T05:20:56.754Z,14.38
2016-06-16T05:21:56.757Z,14.41
2016-06-16T05:22:56.760Z,14.44
2016-06-16T05:23:56.779Z,14.51
2016-06-16T05:24:56.766Z,14.53
2016-06-16T05:25:56.769Z,14.52
2016-06-16T05:26:56.789Z,14.53
2016-06-16T05:27:56.776Z,14.53
2016-06-16T05:28:56.623Z,14.55
2016-06-16T05:29:56.781Z,14.58
2016-06-16T05:30:56.612Z,14.52
2016-06-16T05:31:56.772Z,14.52
2016-06-16T05:32:56.760Z,14.49
2016-06-16T05:33:56.778Z,14.58
2016-06-16T05:34:56.766Z,14.55
2016-06-16T05:35:56.784Z,14.62
2016-06-16T05:36:56.615Z,14.62
2016-06-16T05:37:56.618Z,14.71
2016-06-16T05:38:56.778Z,14.71
2016-06-16T05:39:56.781Z,14.66
2016-06-16T05:40:56.799Z,14.73
2016-06-16T05:41:56.787Z,14.79
2016-06-16T05:42:56.791Z,14.78
2016-06-16T05:43:56.622Z,14.89
2016-06-16T05:44:56.781Z,14.96
2016-06-16T05:45:56.784Z,15.02
2016-06-16T05:46:56.771Z,15.1
2016-06-16T05:47:56.773Z,15.15
2016-06-16T05:48:56.777Z,15.18
2016-06-16T05:49:56.780Z,15.25
2016-06-16T05:50:56.783Z,15.36
2016-06-16T05:51:56.786Z,15.44
2016-06-16T05:52:56.789Z,15.36
2016-06-16T05:53:56.792Z,15.44
2016-06-16T05:54:56.625Z,15.41
2016-06-16T05:55:56.784Z,15.43
2016-06-16T05:56:57.490Z,15.37
2016-06-16T05:57:56.634Z,15.36
2016-06-16T05:58:56.777Z,15.44
2016-06-16T05:59:56.795Z,15.44
2016-06-16T06:00:56.798Z,15.43
2016-06-16T06:01:56.802Z,15.5
2016-06-16T06:02:56.805Z,15.45
2016-06-16T06:03:56.792Z,15.48
2016-06-16T06:04:56.795Z,15.51
2016-06-16T06:05:56.798Z,15.51
2016-06-16T06:06:56.801Z,15.51
2016-06-16T06:07:56.805Z,15.39
2016-06-16T06:08:56.793Z,15.51
2016-06-16T06:09:56.811Z,15.52
2016-06-16T06:10:56.799Z,15.55
2016-06-16T06:11:57.036Z,15.5
2016-06-16T06:12:56.788Z,15.47
2016-06-16T06:13:56.807Z,15.48
2016-06-16T06:14:56.811Z,15.51
2016-06-16T06:15:56.954Z,15.5
2016-06-16T06:16:56.817Z,15.5
2016-06-16T06:17:56.820Z,15.55
2016-06-16T06:18:56.807Z,15.54
2016-06-16T06:19:56.811Z,15.59
2016-06-16T06:20:56.813Z,15.6
2016-06-16T06:21:56.801Z,15.67
2016-06-16T06:22:56.803Z,15.66
2016-06-16T06:23:56.807Z,15.8
2016-06-16T06:24:56.825Z,15.87
2016-06-16T06:25:56.813Z,15.96
2016-06-16T06:26:56.816Z,15.91
2016-06-16T06:27:56.819Z,15.99
2016-06-16T06:28:56.822Z,15.99
2016-06-16T06:29:56.841Z,16.09
2016-06-16T06:30:56.813Z,16.08
2016-06-16T06:31:56.816Z,16.12
2016-06-16T06:32:56.819Z,16.1
2016-06-16T06:33:56.822Z,16.12
2016-06-16T06:34:56.826Z,16.18
2016-06-16T06:35:56.813Z,16.1
2016-06-16T06:36:56.832Z,16.22
2016-06-16T06:37:56.818Z,16.22
2016-06-16T06:38:56.837Z,16.18
2016-06-16T06:39:56.841Z,16.24
2016-06-16T06:40:56.828Z,16.25
2016-06-16T06:41:57.050Z,16.34
2016-06-16T06:42:56.834Z,16.41
2016-06-16T06:43:56.821Z,16.46
2016-06-16T06:44:56.824Z,16.49
2016-06-16T06:45:56.843Z,16.5
2016-06-16T06:46:56.846Z,16.44
2016-06-16T06:47:56.677Z,16.51
2016-06-16T06:48:56.681Z,16.58
2016-06-16T06:49:56.840Z,16.59
2016-06-16T06:50:56.843Z,16.64
2016-06-16T06:51:56.845Z,16.57
2016-06-16T06:52:56.834Z,16.69
2016-06-16T06:53:56.851Z,16.72
2016-06-16T06:54:56.840Z,16.73
2016-06-16T06:55:56.843Z,16.82
2016-06-16T06:56:57.190Z,16.92
2016-06-16T06:57:56.849Z,16.91
2016-06-16T06:58:56.867Z,16.98
2016-06-16T06:59:56.699Z,16.97
2016-06-16T07:00:56.873Z,16.91
2016-06-16T07:01:56.845Z,16.95
2016-06-16T07:02:56.849Z,16.98
2016-06-16T07:03:56.852Z,16.94
2016-06-16T07:04:56.698Z,17.02
2016-06-16T07:05:56.857Z,17.02
2016-06-16T07:06:56.877Z,17.13
2016-06-16T07:07:56.864Z,17.16
2016-06-16T07:08:56.852Z,17.34
2016-06-16T07:09:56.698Z,17.37
2016-06-16T07:10:56.701Z,17.56
2016-06-16T07:11:57.267Z,17.71
2016-06-16T07:12:57.051Z,17.75
2016-06-16T07:13:56.867Z,17.84
2016-06-16T07:14:56.870Z,17.93
2016-06-16T07:15:56.889Z,17.93
2016-06-16T07:16:56.892Z,18.02
2016-06-16T07:17:56.880Z,18.06
2016-06-16T07:18:56.882Z,17.98
2016-06-16T07:19:56.729Z,18.09
2016-06-16T07:20:56.873Z,18.16
2016-06-16T07:21:56.876Z,18.36
2016-06-16T07:22:56.879Z,18.6
2016-06-16T07:23:56.882Z,18.85
2016-06-16T07:24:56.886Z,18.94
2016-06-16T07:25:56.888Z,19.22
2016-06-16T07:26:56.735Z,19.42
2016-06-16T07:27:56.894Z,19.6
2016-06-16T07:28:56.881Z,19.74
2016-06-16T07:29:56.885Z,19.9
2016-06-16T07:30:56.903Z,20.1
2016-06-16T07:31:56.906Z,20.29
2016-06-16T07:32:56.894Z,20.44
2016-06-16T07:33:56.741Z,20.63
2016-06-16T07:48:37.521Z,20.71
2016-06-16T07:48:40.880Z,20.17
2016-06-16T07:48:53.365Z,20.14
2016-06-16T07:49:53.352Z,20.24
2016-06-16T07:50:53.371Z,20.15
2016-06-16T07:51:53.389Z,20.12
2016-06-16T07:52:53.205Z,20.22
2016-06-16T07:53:53.364Z,20.21
2016-06-16T07:54:53.227Z,20.33
2016-06-16T07:55:53.371Z,20.32
2016-06-16T07:56:53.390Z,20.44
2016-06-16T07:57:53.376Z,20.66
2016-06-16T07:58:53.379Z,20.86
2016-06-16T07:59:53.227Z,21.23
2016-06-16T08:00:53.230Z,21.65
2016-06-16T08:01:53.389Z,22.04
2016-06-16T08:02:53.376Z,22.15
2016-06-16T08:03:53.379Z,22.37
2016-06-16T08:04:53.398Z,22.51
2016-06-16T08:05:53.245Z,22.43
2016-06-16T08:06:53.405Z,22.31
2016-06-16T08:07:53.392Z,22.21
2016-06-16T08:08:53.395Z,22.1
2016-06-16T08:09:53.398Z,22.03
2016-06-16T08:10:53.401Z,22.08
2016-06-16T08:11:53.310Z,22.07
2016-06-16T08:12:53.423Z,22.41
2016-06-16T08:13:53.410Z,22.92
2016-06-16T08:14:53.428Z,23.37
2016-06-16T08:15:53.323Z,23.79
2016-06-16T08:16:53.263Z,24.34
2016-06-16T08:17:53.422Z,24.94
2016-06-16T08:18:53.426Z,25.34
2016-06-16T08:19:53.272Z,25.63
2016-06-16T08:20:53.431Z,25.78
2016-06-16T08:21:53.435Z,25.85
2016-06-16T08:22:53.281Z,25.7
2016-06-16T08:23:53.441Z,25.41
2016-06-16T08:24:53.443Z,25.15
2016-06-16T08:25:53.290Z,24.99
2016-06-16T08:26:53.481Z,24.74
2016-06-16T08:27:53.313Z,24.56
2016-06-16T08:28:53.456Z,24.4
2016-06-16T08:29:53.459Z,24.28
2016-06-16T08:30:53.150Z,23.99
2016-06-16T08:31:53.481Z,23.76
2016-06-16T08:32:53.468Z,23.54
2016-06-16T08:33:53.471Z,23.52
2016-06-16T08:34:53.491Z,23.54
2016-06-16T08:35:53.478Z,23.59
2016-06-16T08:36:53.497Z,23.73
2016-06-16T08:37:53.468Z,23.91
2016-06-16T08:38:53.487Z,24.04
2016-06-16T08:39:53.490Z,24.1
2016-06-16T08:40:53.337Z,24.14
2016-06-16T08:41:53.512Z,24.13
2016-06-16T08:42:53.500Z,24.09
2016-06-16T08:43:53.503Z,24
2016-06-16T08:44:53.506Z,23.95
2016-06-16T08:45:53.509Z,24.01
2016-06-16T08:46:53.512Z,24.07
2016-06-16T08:47:53.514Z,24.06
2016-06-16T08:48:16.581Z,24.21
2016-06-16T08:48:29.018Z,24.09
2016-06-16T08:49:29.021Z,23.95
2016-06-16T08:50:29.010Z,23.91
2016-06-16T08:51:29.012Z,23.76
2016-06-16T08:52:29.015Z,23.81
2016-06-16T08:53:29.019Z,23.99
2016-06-16T08:54:29.022Z,24.21
2016-06-16T08:55:28.868Z,24.34
2016-06-16T08:56:29.027Z,24.59
2016-06-16T08:57:29.031Z,24.71
2016-06-16T08:58:29.033Z,24.96
2016-06-16T08:59:29.037Z,25.07
2016-06-16T09:00:29.040Z,25.3
2016-06-16T09:01:29.043Z,25.3
2016-06-16T09:02:29.046Z,25.31
2016-06-16T09:03:29.049Z,25.36
2016-06-16T09:04:29.052Z,25.37
2016-06-16T09:05:28.915Z,25.31
2016-06-16T09:06:29.058Z,25.19
2016-06-16T09:07:29.076Z,25.07
2016-06-16T09:08:29.079Z,24.96
2016-06-16T09:09:29.068Z,24.94
2016-06-16T09:10:29.071Z,24.96
2016-06-16T09:11:29.183Z,25.12
2016-06-16T09:12:29.076Z,25.25
2016-06-16T09:13:29.080Z,25.36
2016-06-16T09:14:28.770Z,25.37
2016-06-16T09:15:28.929Z,25.41
2016-06-16T09:16:29.120Z,25.43
2016-06-16T09:17:29.139Z,25.36
2016-06-16T09:18:29.095Z,25.26
2016-06-16T09:19:29.099Z,24.94
2016-06-16T09:20:29.101Z,24.82
2016-06-16T09:21:29.105Z,24.53
2016-06-16T09:22:28.966Z,24.4
2016-06-16T09:23:29.125Z,24.21
2016-06-16T09:24:29.129Z,24.04
2016-06-16T09:25:29.179Z,23.88
2016-06-16T09:26:28.823Z,23.76
2016-06-16T09:27:29.138Z,23.63
2016-06-16T09:28:29.141Z,23.36
2016-06-16T09:29:28.988Z,23.17
2016-06-16T09:30:29.147Z,22.88
2016-06-16T09:31:29.150Z,22.62
2016-06-16T09:32:28.997Z,22.51
2016-06-16T09:33:29.173Z,22.33
2016-06-16T09:34:29.003Z,22.15
2016-06-16T09:35:29.007Z,21.92
2016-06-16T09:36:29.182Z,21.75
2016-06-16T09:37:29.013Z,21.53
2016-06-16T09:38:29.015Z,21.23
2016-06-16T09:39:29.191Z,21.04
2016-06-16T09:40:29.178Z,20.83
2016-06-16T09:41:29.166Z,20.71
2016-06-16T09:42:29.184Z,20.55
2016-06-16T09:43:29.187Z,20.44
2016-06-16T09:44:29.190Z,20.52
2016-06-16T09:45:29.240Z,20.46
2016-06-16T09:46:29.057Z,20.44
2016-06-16T09:47:29.199Z,20.48
2016-06-16T09:48:29.202Z,20.42
2016-06-16T09:49:29.050Z,20.32
2016-06-16T09:50:29.208Z,20.36
2016-06-16T09:51:29.212Z,20.19
2016-06-16T09:52:29.215Z,20.29
2016-06-16T09:53:29.218Z,20.15
2016-06-16T09:54:29.220Z,20.12
2016-06-16T09:55:29.224Z,20.17
2016-06-16T09:56:29.212Z,20.1
2016-06-16T09:57:29.230Z,20.03
2016-06-16T09:58:28.921Z,20.03
2016-06-16T09:59:29.236Z,20.07
2016-06-16T10:00:29.239Z,20.08
2016-06-16T10:01:29.242Z,20.08
2016-06-16T10:02:29.246Z,20.14
2016-06-16T10:03:29.281Z,20.15
2016-06-16T10:04:29.080Z,20.29
2016-06-16T10:05:29.240Z,20.32
2016-06-16T10:06:29.243Z,20.37
2016-06-16T10:07:30.198Z,20.59
2016-06-16T10:08:29.108Z,20.6
2016-06-16T10:09:29.252Z,20.74
2016-06-16T10:10:29.270Z,20.86
2016-06-16T10:11:29.258Z,21.05
2016-06-16T10:12:29.104Z,21.1
2016-06-16T10:13:29.107Z,21.19
2016-06-16T10:14:29.268Z,21.37
2016-06-16T10:15:29.114Z,21.48
2016-06-16T10:16:29.163Z,21.6
2016-06-16T10:17:29.433Z,21.7
2016-06-16T10:18:29.294Z,21.91
2016-06-16T10:19:29.126Z,21.94
2016-06-16T10:20:29.442Z,22.07
2016-06-16T10:21:29.289Z,22.18
2016-06-16T10:22:29.354Z,22.21
2016-06-16T10:23:29.310Z,22.19
2016-06-16T10:24:29.313Z,22.06
2016-06-16T10:25:29.301Z,22.01
2016-06-16T10:26:29.147Z,21.99
2016-06-16T10:27:29.308Z,21.96
2016-06-16T10:28:29.153Z,22
2016-06-16T10:29:29.314Z,21.89
2016-06-16T10:30:29.160Z,21.78
2016-06-16T10:31:29.163Z,21.68
2016-06-16T10:32:29.198Z,21.62
2016-06-16T10:33:29.466Z,21.6
2016-06-16T10:34:29.250Z,21.56
2016-06-16T10:35:29.550Z,21.53
2016-06-16T10:36:29.569Z,21.43
2016-06-16T10:37:29.588Z,21.37
2016-06-16T10:38:29.341Z,21.38
2016-06-16T10:39:29.187Z,21.53
2016-06-16T10:40:29.035Z,21.62
2016-06-16T10:41:29.193Z,21.63
2016-06-16T10:42:29.368Z,21.74
2016-06-16T10:43:29.199Z,21.74
2016-06-16T10:44:29.360Z,21.75
2016-06-16T10:45:29.363Z,21.8
2016-06-16T10:46:29.381Z,21.8
2016-06-16T10:47:29.369Z,21.88
2016-06-16T10:48:29.387Z,22.01
2016-06-16T10:49:29.375Z,22.07
2016-06-16T10:50:29.378Z,22.19
2016-06-16T10:51:29.224Z,22.31
2016-06-16T10:52:29.227Z,22.43
2016-06-16T10:53:29.387Z,22.43
2016-06-16T10:54:29.391Z,22.37
2016-06-16T10:55:29.393Z,22.38
2016-06-16T10:56:29.240Z,22.14
2016-06-16T10:57:29.400Z,22.16
2016-06-16T10:58:29.403Z,21.92
2016-06-16T10:59:29.405Z,21.8
2016-06-16T11:00:29.424Z,21.69
2016-06-16T11:01:29.412Z,21.6
2016-06-16T11:02:29.415Z,21.38
2016-06-16T11:03:29.434Z,21.28
2016-06-16T11:04:29.280Z,21.14
2016-06-16T11:07:44.555Z,20.7
2016-06-16T11:09:35.077Z,20.59
2016-06-16T11:09:47.421Z,20.59
2016-06-16T11:10:47.596Z,20.48
2016-06-16T11:11:47.567Z,20.46
2016-06-16T11:13:38.121Z,20.6
2016-06-16T11:13:50.433Z,20.53
2016-06-16T11:14:50.436Z,20.6
2016-06-16T11:15:50.283Z,20.74
2016-06-16T11:16:50.442Z,20.9
2016-06-16T11:17:50.430Z,21.04
2016-06-16T11:18:50.448Z,21.08
2016-06-16T11:19:50.451Z,21.08
2016-06-16T11:20:50.440Z,21.11
2016-06-16T11:21:50.443Z,21.13
2016-06-16T11:22:50.446Z,21.13
2016-06-16T11:23:50.292Z,21.08
2016-06-16T11:24:50.452Z,21.05
2016-06-16T11:25:50.470Z,20.85
2016-06-16T11:26:50.316Z,20.78
2016-06-16T11:27:50.476Z,20.68
2016-06-16T11:28:50.479Z,20.58
2016-06-16T11:29:50.482Z,20.52
2016-06-16T11:30:50.470Z,20.32
2016-06-16T11:31:50.473Z,20.18
2016-06-16T11:32:50.476Z,20.24
2016-06-16T11:33:50.495Z,20.17
2016-06-16T11:34:50.497Z,20.18
2016-06-16T11:35:50.345Z,20.32
2016-06-16T11:36:50.364Z,20.3
2016-06-16T11:37:50.366Z,20.3
2016-06-16T11:38:50.509Z,20.33
2016-06-16T11:39:50.513Z,20.33
2016-06-16T11:40:50.501Z,20.34
2016-06-16T11:41:50.363Z,20.3
2016-06-16T11:42:50.522Z,20.21
2016-06-16T11:43:50.510Z,20.19
2016-06-16T11:44:50.513Z,20.21
2016-06-16T11:45:50.375Z,20.17
2016-06-16T11:46:50.535Z,20.07
2016-06-16T11:47:50.381Z,19.93
2016-06-16T11:48:50.525Z,19.85
2016-06-16T11:49:50.528Z,19.75
2016-06-16T11:50:50.531Z,19.67
2016-06-16T11:51:50.535Z,19.62
2016-06-16T11:52:50.553Z,19.53
2016-06-16T11:53:50.572Z,19.42
2016-06-16T11:54:50.544Z,19.44
2016-06-16T11:55:50.547Z,19.29
2016-06-16T11:56:50.550Z,19.27
2016-06-16T11:57:50.396Z,19.26
2016-06-16T11:58:50.557Z,19.19
2016-06-16T11:59:50.560Z,19.16
2016-06-16T12:00:50.562Z,19.08
2016-06-16T12:01:50.409Z,19.19
2016-06-16T12:02:50.584Z,19.22
2016-06-16T12:03:50.430Z,19.29
2016-06-16T12:04:50.575Z,19.32
2016-06-16T12:05:50.421Z,19.47
2016-06-16T12:06:50.581Z,19.42
2016-06-16T12:07:50.599Z,19.42
2016-06-16T12:08:50.430Z,19.47
2016-06-16T12:09:50.590Z,19.47
2016-06-16T12:10:50.436Z,19.49
2016-06-16T12:11:50.736Z,19.47
2016-06-16T12:12:50.442Z,19.44
2016-06-16T12:13:50.430Z,19.49
2016-06-16T12:14:50.606Z,19.47
2016-06-16T12:15:50.609Z,19.59
2016-06-16T12:16:50.626Z,19.72
2016-06-16T12:17:50.599Z,19.85
2016-06-16T12:18:50.618Z,19.99
2016-06-16T12:19:50.605Z,20.04
2016-06-16T12:20:50.452Z,20.14
2016-06-16T12:21:50.627Z,20.17
2016-06-16T12:22:50.614Z,20.17
2016-06-16T12:23:50.461Z,20.14
2016-06-16T12:24:50.621Z,20.21
2016-06-16T12:25:50.467Z,20.14
2016-06-16T12:26:50.626Z,20.04
2016-06-16T12:27:50.629Z,19.93
2016-06-16T12:28:50.633Z,19.79
2016-06-16T12:29:50.652Z,19.77
2016-06-16T12:30:50.639Z,19.78
2016-06-16T12:31:50.642Z,19.66
2016-06-16T12:32:50.723Z,19.72
2016-06-16T12:33:50.648Z,19.6
2016-06-16T12:34:50.651Z,19.71
2016-06-16T12:35:50.670Z,19.82
2016-06-16T12:36:50.641Z,19.74
2016-06-16T12:37:50.661Z,19.79
2016-06-16T12:38:50.648Z,19.85
2016-06-16T12:39:50.494Z,19.9
2016-06-16T12:40:50.654Z,19.93
2016-06-16T12:41:50.656Z,19.93
2016-06-16T12:42:50.675Z,19.94
2016-06-16T12:43:50.679Z,19.93
2016-06-16T12:44:50.681Z,19.87
2016-06-16T12:45:50.685Z,19.87
2016-06-16T12:46:50.532Z,19.81
2016-06-16T12:47:50.691Z,19.81
2016-06-16T12:48:50.678Z,19.77
2016-06-16T12:49:50.697Z,19.77
2016-06-16T12:50:50.700Z,19.78
2016-06-16T12:51:50.688Z,19.79
2016-06-16T12:52:50.691Z,19.75
2016-06-16T12:58:57.584Z,20.44
2016-06-16T12:59:57.618Z,20.7
2016-06-16T13:00:57.606Z,20.96
2016-06-16T13:01:57.594Z,21.11
2016-06-16T13:02:57.597Z,21.32
2016-06-16T13:03:57.600Z,21.56
2016-06-16T13:04:57.603Z,21.59
2016-06-16T13:05:57.605Z,21.62
2016-06-16T13:06:57.453Z,21.7
2016-06-16T13:07:57.597Z,21.8
2016-06-16T13:08:57.615Z,21.84
2016-06-16T13:09:57.462Z,21.78
2016-06-16T13:10:57.607Z,21.78
2016-06-16T13:11:57.766Z,21.78
2016-06-16T13:12:57.784Z,21.68
2016-06-16T13:13:57.475Z,21.62